sensor_id;sensor_type;location;lat;lon;timestamp;P1;durP1;ratioP1;P2;durP2;ratioP2
13102;SDS011;52970;46.752;17.108;2024-02-26T00:01:38;15.60;;;10.57;;
13102;SDS011;52970;46.752;17.108;2024-02-26T00:04:04;14.52;;;10.57;;
13102;SDS011;52970;46.752;17.108;2024-02-26T00:06:29;13.70;;;10.30;;
13102;SDS011;52970;46.752;17.108;2024-02-26T00:08:55;15.70;;;11.30;;
13102;SDS011;52970;46.752;17.108;2024-02-26T00:11:20;14.95;;;10.70;;
13102;SDS011;52970;46.752;17.108;2024-02-26T00:13:45;15.90;;;10.90;;
13102;SDS011;52970;46.752;17.108;2024-02-26T00:16:10;15.20;;;11.27;;
13102;SDS011;52970;46.752;17.108;2024-02-26T00:18:35;15.18;;;10.90;;
13102;SDS011;52970;46.752;17.108;2024-02-26T00:21:01;14.63;;;10.88;;
13102;SDS011;52970;46.752;17.108;2024-02-26T00:23:27;15.18;;;11.30;;
13102;SDS011;52970;46.752;17.108;2024-02-26T00:25:52;15.10;;;10.85;;
13102;SDS011;52970;46.752;17.108;2024-02-26T00:28:17;16.40;;;11.40;;
13102;SDS011;52970;46.752;17.108;2024-02-26T00:30:45;17.45;;;12.13;;
13102;SDS011;52970;46.752;17.108;2024-02-26T00:33:10;17.40;;;11.38;;
13102;SDS011;52970;46.752;17.108;2024-02-26T00:35:35;18.63;;;12.02;;
13102;SDS011;52970;46.752;17.108;2024-02-26T00:38:00;20.10;;;12.77;;
13102;SDS011;52970;46.752;17.108;2024-02-26T00:40:27;19.15;;;12.02;;
13102;SDS011;52970;46.752;17.108;2024-02-26T00:42:52;18.25;;;12.48;;
13102;SDS011;52970;46.752;17.108;2024-02-26T00:45:17;17.13;;;11.35;;
13102;SDS011;52970;46.752;17.108;2024-02-26T00:47:43;16.60;;;12.13;;
13102;SDS011;52970;46.752;17.108;2024-02-26T00:50:10;15.20;;;11.10;;
13102;SDS011;52970;46.752;17.108;2024-02-26T00:52:35;13.77;;;10.57;;
13102;SDS011;52970;46.752;17.108;2024-02-26T00:55:01;14.48;;;10.88;;
13102;SDS011;52970;46.752;17.108;2024-02-26T00:57:27;15.35;;;10.63;;
13102;SDS011;52970;46.752;17.108;2024-02-26T00:59:52;15.45;;;11.63;;
13102;SDS011;52970;46.752;17.108;2024-02-26T01:02:18;15.98;;;11.60;;
13102;SDS011;52970;46.752;17.108;2024-02-26T01:04:43;17.70;;;12.32;;
13102;SDS011;52970;46.752;17.108;2024-02-26T01:07:08;15.50;;;11.63;;
13102;SDS011;52970;46.752;17.108;2024-02-26T01:09:34;17.20;;;12.18;;
13102;SDS011;52970;46.752;17.108;2024-02-26T01:11:59;19.27;;;12.23;;
13102;SDS011;52970;46.752;17.108;2024-02-26T01:14:24;16.25;;;11.75;;
13102;SDS011;52970;46.752;17.108;2024-02-26T01:16:50;17.45;;;12.85;;
13102;SDS011;52970;46.752;17.108;2024-02-26T01:19:15;17.42;;;12.25;;
13102;SDS011;52970;46.752;17.108;2024-02-26T01:21:40;20.77;;;13.27;;
13102;SDS011;52970;46.752;17.108;2024-02-26T01:24:05;17.30;;;11.02;;
13102;SDS011;52970;46.752;17.108;2024-02-26T01:26:31;16.02;;;11.05;;
13102;SDS011;52970;46.752;17.108;2024-02-26T01:28:56;19.63;;;13.38;;
13102;SDS011;52970;46.752;17.108;2024-02-26T01:31:21;19.70;;;13.93;;
13102;SDS011;52970;46.752;17.108;2024-02-26T01:33:46;19.38;;;12.80;;
13102;SDS011;52970;46.752;17.108;2024-02-26T01:36:12;16.85;;;10.95;;
13102;SDS011;52970;46.752;17.108;2024-02-26T01:38:37;14.68;;;11.68;;
13102;SDS011;52970;46.752;17.108;2024-02-26T01:41:02;15.70;;;11.38;;
13102;SDS011;52970;46.752;17.108;2024-02-26T01:43:27;15.93;;;11.18;;
13102;SDS011;52970;46.752;17.108;2024-02-26T01:45:53;14.80;;;9.93;;
13102;SDS011;52970;46.752;17.108;2024-02-26T01:48:18;15.43;;;10.55;;
13102;SDS011;52970;46.752;17.108;2024-02-26T01:50:44;20.75;;;12.65;;
13102;SDS011;52970;46.752;17.108;2024-02-26T01:53:09;16.88;;;10.95;;
13102;SDS011;52970;46.752;17.108;2024-02-26T01:55:34;16.00;;;10.70;;
13102;SDS011;52970;46.752;17.108;2024-02-26T01:58:00;14.80;;;10.32;;
13102;SDS011;52970;46.752;17.108;2024-02-26T02:00:25;14.98;;;10.73;;
13102;SDS011;52970;46.752;17.108;2024-02-26T02:02:51;18.85;;;12.60;;
13102;SDS011;52970;46.752;17.108;2024-02-26T02:05:16;27.65;;;15.02;;
13102;SDS011;52970;46.752;17.108;2024-02-26T02:07:45;27.77;;;16.10;;
13102;SDS011;52970;46.752;17.108;2024-02-26T02:10:11;24.17;;;14.63;;
13102;SDS011;52970;46.752;17.108;2024-02-26T02:12:36;33.22;;;17.17;;
13102;SDS011;52970;46.752;17.108;2024-02-26T02:15:05;27.13;;;15.38;;
13102;SDS011;52970;46.752;17.108;2024-02-26T02:17:30;26.70;;;14.63;;
13102;SDS011;52970;46.752;17.108;2024-02-26T02:19:56;29.33;;;16.42;;
13102;SDS011;52970;46.752;17.108;2024-02-26T02:22:21;30.10;;;18.17;;
13102;SDS011;52970;46.752;17.108;2024-02-26T02:24:47;36.92;;;19.48;;
13102;SDS011;52970;46.752;17.108;2024-02-26T02:27:12;35.38;;;17.55;;
13102;SDS011;52970;46.752;17.108;2024-02-26T02:29:38;35.45;;;18.02;;
13102;SDS011;52970;46.752;17.108;2024-02-26T02:32:03;43.40;;;19.25;;
13102;SDS011;52970;46.752;17.108;2024-02-26T02:34:29;35.08;;;17.23;;
13102;SDS011;52970;46.752;17.108;2024-02-26T02:36:54;48.80;;;21.33;;
13102;SDS011;52970;46.752;17.108;2024-02-26T02:39:20;51.20;;;21.83;;
13102;SDS011;52970;46.752;17.108;2024-02-26T02:41:45;47.47;;;20.45;;
13102;SDS011;52970;46.752;17.108;2024-02-26T02:44:12;48.22;;;21.02;;
13102;SDS011;52970;46.752;17.108;2024-02-26T02:46:37;42.20;;;19.33;;
13102;SDS011;52970;46.752;17.108;2024-02-26T02:49:03;44.90;;;19.92;;
13102;SDS011;52970;46.752;17.108;2024-02-26T02:51:28;47.58;;;20.75;;
13102;SDS011;52970;46.752;17.108;2024-02-26T02:53:53;46.88;;;20.58;;
13102;SDS011;52970;46.752;17.108;2024-02-26T02:56:19;46.03;;;20.75;;
13102;SDS011;52970;46.752;17.108;2024-02-26T02:58:44;42.78;;;20.50;;
13102;SDS011;52970;46.752;17.108;2024-02-26T03:01:09;34.55;;;18.90;;
13102;SDS011;52970;46.752;17.108;2024-02-26T03:03:34;36.10;;;19.02;;
13102;SDS011;52970;46.752;17.108;2024-02-26T03:06:01;32.63;;;18.05;;
13102;SDS011;52970;46.752;17.108;2024-02-26T03:08:27;29.42;;;17.95;;
13102;SDS011;52970;46.752;17.108;2024-02-26T03:10:52;28.65;;;16.55;;
13102;SDS011;52970;46.752;17.108;2024-02-26T03:13:17;26.58;;;16.77;;
13102;SDS011;52970;46.752;17.108;2024-02-26T03:15:42;27.58;;;15.93;;
13102;SDS011;52970;46.752;17.108;2024-02-26T03:18:08;25.05;;;15.65;;
13102;SDS011;52970;46.752;17.108;2024-02-26T03:20:33;22.85;;;15.25;;
13102;SDS011;52970;46.752;17.108;2024-02-26T03:22:58;24.55;;;15.68;;
13102;SDS011;52970;46.752;17.108;2024-02-26T03:25:24;22.75;;;14.75;;
13102;SDS011;52970;46.752;17.108;2024-02-26T03:27:49;19.98;;;13.70;;
13102;SDS011;52970;46.752;17.108;2024-02-26T03:30:15;22.05;;;14.52;;
13102;SDS011;52970;46.752;17.108;2024-02-26T03:32:41;19.00;;;13.98;;
13102;SDS011;52970;46.752;17.108;2024-02-26T03:35:06;23.23;;;15.07;;
13102;SDS011;52970;46.752;17.108;2024-02-26T03:37:32;25.08;;;15.43;;
13102;SDS011;52970;46.752;17.108;2024-02-26T03:39:58;24.08;;;15.13;;
13102;SDS011;52970;46.752;17.108;2024-02-26T03:42:23;20.25;;;13.68;;
13102;SDS011;52970;46.752;17.108;2024-02-26T03:44:48;19.83;;;14.50;;
13102;SDS011;52970;46.752;17.108;2024-02-26T03:47:13;22.40;;;15.40;;
13102;SDS011;52970;46.752;17.108;2024-02-26T03:49:39;20.85;;;14.35;;
13102;SDS011;52970;46.752;17.108;2024-02-26T03:52:04;18.58;;;13.68;;
13102;SDS011;52970;46.752;17.108;2024-02-26T03:54:29;31.88;;;15.27;;
13102;SDS011;52970;46.752;17.108;2024-02-26T03:56:55;20.33;;;14.13;;
13102;SDS011;52970;46.752;17.108;2024-02-26T03:59:20;21.88;;;13.57;;
13102;SDS011;52970;46.752;17.108;2024-02-26T04:01:47;17.58;;;13.65;;
13102;SDS011;52970;46.752;17.108;2024-02-26T04:04:12;20.60;;;14.15;;
13102;SDS011;52970;46.752;17.108;2024-02-26T04:06:37;31.70;;;14.35;;
13102;SDS011;52970;46.752;17.108;2024-02-26T04:09:03;18.85;;;13.20;;
13102;SDS011;52970;46.752;17.108;2024-02-26T04:11:29;17.75;;;13.02;;
13102;SDS011;52970;46.752;17.108;2024-02-26T04:13:54;20.65;;;14.00;;
13102;SDS011;52970;46.752;17.108;2024-02-26T04:16:19;17.08;;;12.95;;
13102;SDS011;52970;46.752;17.108;2024-02-26T04:18:44;16.65;;;13.15;;
13102;SDS011;52970;46.752;17.108;2024-02-26T04:21:09;27.48;;;14.45;;
13102;SDS011;52970;46.752;17.108;2024-02-26T04:23:35;26.63;;;14.63;;
13102;SDS011;52970;46.752;17.108;2024-02-26T04:26:00;18.17;;;12.70;;
13102;SDS011;52970;46.752;17.108;2024-02-26T04:28:25;17.17;;;12.93;;
13102;SDS011;52970;46.752;17.108;2024-02-26T04:30:53;17.33;;;12.88;;
13102;SDS011;52970;46.752;17.108;2024-02-26T04:33:19;17.00;;;12.77;;
13102;SDS011;52970;46.752;17.108;2024-02-26T04:35:44;20.20;;;14.57;;
13102;SDS011;52970;46.752;17.108;2024-02-26T04:38:09;17.48;;;13.30;;
13102;SDS011;52970;46.752;17.108;2024-02-26T04:40:34;21.17;;;14.70;;
13102;SDS011;52970;46.752;17.108;2024-02-26T04:42:59;19.42;;;14.52;;
13102;SDS011;52970;46.752;17.108;2024-02-26T04:45:25;17.58;;;13.75;;
13102;SDS011;52970;46.752;17.108;2024-02-26T04:47:50;20.08;;;13.93;;
13102;SDS011;52970;46.752;17.108;2024-02-26T04:50:15;20.35;;;13.95;;
13102;SDS011;52970;46.752;17.108;2024-02-26T04:52:41;18.08;;;12.65;;
13102;SDS011;52970;46.752;17.108;2024-02-26T04:55:06;15.98;;;12.10;;
13102;SDS011;52970;46.752;17.108;2024-02-26T04:57:32;37.30;;;13.15;;
13102;SDS011;52970;46.752;17.108;2024-02-26T04:59:57;17.73;;;13.20;;
13102;SDS011;52970;46.752;17.108;2024-02-26T05:02:22;15.02;;;11.82;;
13102;SDS011;52970;46.752;17.108;2024-02-26T05:04:48;17.48;;;12.30;;
13102;SDS011;52970;46.752;17.108;2024-02-26T05:07:13;15.88;;;11.75;;
13102;SDS011;52970;46.752;17.108;2024-02-26T05:09:38;16.92;;;11.95;;
13102;SDS011;52970;46.752;17.108;2024-02-26T05:12:04;14.82;;;11.23;;
13102;SDS011;52970;46.752;17.108;2024-02-26T05:14:29;18.30;;;11.80;;
13102;SDS011;52970;46.752;17.108;2024-02-26T05:16:54;19.15;;;10.70;;
13102;SDS011;52970;46.752;17.108;2024-02-26T05:19:19;26.30;;;11.73;;
13102;SDS011;52970;46.752;17.108;2024-02-26T05:21:45;15.48;;;11.55;;
13102;SDS011;52970;46.752;17.108;2024-02-26T05:24:12;13.15;;;10.68;;
13102;SDS011;52970;46.752;17.108;2024-02-26T05:26:37;13.85;;;11.05;;
13102;SDS011;52970;46.752;17.108;2024-02-26T05:29:02;14.80;;;11.70;;
13102;SDS011;52970;46.752;17.108;2024-02-26T05:31:28;15.52;;;11.82;;
13102;SDS011;52970;46.752;17.108;2024-02-26T05:33:54;15.75;;;12.75;;
13102;SDS011;52970;46.752;17.108;2024-02-26T05:36:19;15.82;;;11.68;;
13102;SDS011;52970;46.752;17.108;2024-02-26T05:38:46;16.77;;;12.65;;
13102;SDS011;52970;46.752;17.108;2024-02-26T05:41:11;15.80;;;11.77;;
13102;SDS011;52970;46.752;17.108;2024-02-26T05:43:36;14.00;;;11.68;;
13102;SDS011;52970;46.752;17.108;2024-02-26T05:46:02;15.98;;;11.93;;
13102;SDS011;52970;46.752;17.108;2024-02-26T05:48:27;17.30;;;12.90;;
13102;SDS011;52970;46.752;17.108;2024-02-26T05:50:53;16.63;;;12.27;;
13102;SDS011;52970;46.752;17.108;2024-02-26T05:53:18;19.70;;;12.55;;
13102;SDS011;52970;46.752;17.108;2024-02-26T05:55:43;16.30;;;11.65;;
13102;SDS011;52970;46.752;17.108;2024-02-26T05:58:08;19.20;;;12.82;;
13102;SDS011;52970;46.752;17.108;2024-02-26T06:00:33;13.80;;;11.32;;
13102;SDS011;52970;46.752;17.108;2024-02-26T06:02:59;16.15;;;10.93;;
13102;SDS011;52970;46.752;17.108;2024-02-26T06:05:24;15.15;;;11.95;;
13102;SDS011;52970;46.752;17.108;2024-02-26T06:07:50;13.98;;;11.40;;
13102;SDS011;52970;46.752;17.108;2024-02-26T06:10:15;15.05;;;11.55;;
13102;SDS011;52970;46.752;17.108;2024-02-26T06:12:40;18.10;;;10.73;;
13102;SDS011;52970;46.752;17.108;2024-02-26T06:15:06;15.07;;;11.30;;
13102;SDS011;52970;46.752;17.108;2024-02-26T06:17:32;21.73;;;12.95;;
13102;SDS011;52970;46.752;17.108;2024-02-26T06:19:57;22.27;;;13.80;;
13102;SDS011;52970;46.752;17.108;2024-02-26T06:22:24;17.52;;;12.88;;
13102;SDS011;52970;46.752;17.108;2024-02-26T06:24:49;16.85;;;12.00;;
13102;SDS011;52970;46.752;17.108;2024-02-26T06:27:14;16.35;;;12.27;;
13102;SDS011;52970;46.752;17.108;2024-02-26T06:29:40;18.55;;;12.77;;
13102;SDS011;52970;46.752;17.108;2024-02-26T06:32:05;18.48;;;12.40;;
13102;SDS011;52970;46.752;17.108;2024-02-26T06:34:30;13.60;;;11.27;;
13102;SDS011;52970;46.752;17.108;2024-02-26T06:36:56;14.40;;;11.63;;
13102;SDS011;52970;46.752;17.108;2024-02-26T06:39:21;14.05;;;11.43;;
13102;SDS011;52970;46.752;17.108;2024-02-26T06:41:46;15.55;;;10.65;;
13102;SDS011;52970;46.752;17.108;2024-02-26T06:44:12;15.93;;;11.15;;
13102;SDS011;52970;46.752;17.108;2024-02-26T06:46:37;13.27;;;10.68;;
13102;SDS011;52970;46.752;17.108;2024-02-26T06:49:03;16.00;;;11.25;;
13102;SDS011;52970;46.752;17.108;2024-02-26T06:51:28;14.35;;;10.48;;
13102;SDS011;52970;46.752;17.108;2024-02-26T06:53:53;13.63;;;10.43;;
13102;SDS011;52970;46.752;17.108;2024-02-26T06:56:18;12.52;;;11.02;;
13102;SDS011;52970;46.752;17.108;2024-02-26T06:58:44;15.07;;;10.90;;
13102;SDS011;52970;46.752;17.108;2024-02-26T07:01:11;17.77;;;12.68;;
13102;SDS011;52970;46.752;17.108;2024-02-26T07:03:37;14.40;;;11.30;;
13102;SDS011;52970;46.752;17.108;2024-02-26T07:06:02;17.15;;;12.70;;
13102;SDS011;52970;46.752;17.108;2024-02-26T07:08:27;17.25;;;12.15;;
13102;SDS011;52970;46.752;17.108;2024-02-26T07:10:52;15.48;;;11.85;;
13102;SDS011;52970;46.752;17.108;2024-02-26T07:13:18;15.77;;;11.43;;
13102;SDS011;52970;46.752;17.108;2024-02-26T07:15:43;16.25;;;11.57;;
13102;SDS011;52970;46.752;17.108;2024-02-26T07:18:08;13.95;;;11.07;;
13102;SDS011;52970;46.752;17.108;2024-02-26T07:20:35;12.65;;;10.15;;
13102;SDS011;52970;46.752;17.108;2024-02-26T07:23:00;12.57;;;9.50;;
13102;SDS011;52970;46.752;17.108;2024-02-26T07:25:26;11.95;;;10.07;;
13102;SDS011;52970;46.752;17.108;2024-02-26T07:27:51;11.80;;;9.45;;
13102;SDS011;52970;46.752;17.108;2024-02-26T07:30:16;11.30;;;9.63;;
13102;SDS011;52970;46.752;17.108;2024-02-26T07:32:42;12.93;;;9.00;;
13102;SDS011;52970;46.752;17.108;2024-02-26T07:35:07;14.80;;;9.98;;
13102;SDS011;52970;46.752;17.108;2024-02-26T07:37:33;14.48;;;11.13;;
13102;SDS011;52970;46.752;17.108;2024-02-26T07:39:59;13.18;;;10.88;;
13102;SDS011;52970;46.752;17.108;2024-02-26T07:42:25;46.40;;;29.92;;
13102;SDS011;52970;46.752;17.108;2024-02-26T07:44:50;38.25;;;24.70;;
13102;SDS011;52970;46.752;17.108;2024-02-26T07:47:15;14.77;;;11.38;;
13102;SDS011;52970;46.752;17.108;2024-02-26T07:49:41;14.95;;;11.27;;
13102;SDS011;52970;46.752;17.108;2024-02-26T07:52:06;11.68;;;9.82;;
13102;SDS011;52970;46.752;17.108;2024-02-26T07:54:31;13.20;;;9.50;;
13102;SDS011;52970;46.752;17.108;2024-02-26T07:56:56;12.85;;;10.40;;
13102;SDS011;52970;46.752;17.108;2024-02-26T07:59:22;12.52;;;9.85;;
13102;SDS011;52970;46.752;17.108;2024-02-26T08:01:50;9.88;;;8.60;;
13102;SDS011;52970;46.752;17.108;2024-02-26T08:04:16;11.38;;;8.55;;
13102;SDS011;52970;46.752;17.108;2024-02-26T08:06:41;11.43;;;9.07;;
13102;SDS011;52970;46.752;17.108;2024-02-26T08:09:06;10.45;;;8.40;;
13102;SDS011;52970;46.752;17.108;2024-02-26T08:11:31;11.60;;;8.65;;
13102;SDS011;52970;46.752;17.108;2024-02-26T08:13:57;11.70;;;8.98;;
13102;SDS011;52970;46.752;17.108;2024-02-26T08:16:24;9.25;;;7.95;;
13102;SDS011;52970;46.752;17.108;2024-02-26T08:18:49;9.45;;;8.43;;
13102;SDS011;52970;46.752;17.108;2024-02-26T08:21:14;8.80;;;7.63;;
13102;SDS011;52970;46.752;17.108;2024-02-26T08:23:39;11.35;;;8.60;;
13102;SDS011;52970;46.752;17.108;2024-02-26T08:26:05;11.10;;;8.70;;
13102;SDS011;52970;46.752;17.108;2024-02-26T08:28:32;9.63;;;8.23;;
13102;SDS011;52970;46.752;17.108;2024-02-26T08:30:57;9.40;;;7.38;;
13102;SDS011;52970;46.752;17.108;2024-02-26T08:33:22;9.18;;;7.75;;
13102;SDS011;52970;46.752;17.108;2024-02-26T08:35:47;10.65;;;8.23;;
13102;SDS011;52970;46.752;17.108;2024-02-26T08:38:13;13.52;;;9.13;;
13102;SDS011;52970;46.752;17.108;2024-02-26T08:40:38;10.18;;;8.18;;
13102;SDS011;52970;46.752;17.108;2024-02-26T08:43:03;10.35;;;8.18;;
13102;SDS011;52970;46.752;17.108;2024-02-26T08:45:28;10.52;;;8.18;;
13102;SDS011;52970;46.752;17.108;2024-02-26T08:47:54;8.75;;;7.85;;
13102;SDS011;52970;46.752;17.108;2024-02-26T08:50:19;8.40;;;7.47;;
13102;SDS011;52970;46.752;17.108;2024-02-26T08:52:44;8.82;;;7.80;;
13102;SDS011;52970;46.752;17.108;2024-02-26T08:55:13;9.30;;;8.05;;
13102;SDS011;52970;46.752;17.108;2024-02-26T08:57:39;11.90;;;8.63;;
13102;SDS011;52970;46.752;17.108;2024-02-26T09:00:04;8.73;;;7.75;;
13102;SDS011;52970;46.752;17.108;2024-02-26T09:02:30;9.13;;;7.82;;
13102;SDS011;52970;46.752;17.108;2024-02-26T09:04:55;11.32;;;8.63;;
13102;SDS011;52970;46.752;17.108;2024-02-26T09:07:22;8.75;;;7.85;;
13102;SDS011;52970;46.752;17.108;2024-02-26T09:09:47;9.75;;;7.97;;
13102;SDS011;52970;46.752;17.108;2024-02-26T09:12:12;8.80;;;7.43;;
13102;SDS011;52970;46.752;17.108;2024-02-26T09:14:38;9.70;;;8.30;;
13102;SDS011;52970;46.752;17.108;2024-02-26T09:17:03;9.68;;;8.13;;
13102;SDS011;52970;46.752;17.108;2024-02-26T09:19:31;8.88;;;7.40;;
13102;SDS011;52970;46.752;17.108;2024-02-26T09:21:56;10.48;;;7.78;;
13102;SDS011;52970;46.752;17.108;2024-02-26T09:24:23;9.50;;;6.88;;
13102;SDS011;52970;46.752;17.108;2024-02-26T09:26:48;9.57;;;7.70;;
13102;SDS011;52970;46.752;17.108;2024-02-26T09:29:13;8.52;;;6.85;;
13102;SDS011;52970;46.752;17.108;2024-02-26T09:31:39;8.50;;;7.60;;
13102;SDS011;52970;46.752;17.108;2024-02-26T09:34:06;7.47;;;6.68;;
13102;SDS011;52970;46.752;17.108;2024-02-26T09:36:31;8.80;;;7.30;;
13102;SDS011;52970;46.752;17.108;2024-02-26T09:38:56;10.00;;;7.40;;
13102;SDS011;52970;46.752;17.108;2024-02-26T09:41:21;7.68;;;6.85;;
13102;SDS011;52970;46.752;17.108;2024-02-26T09:43:47;7.70;;;6.88;;
13102;SDS011;52970;46.752;17.108;2024-02-26T09:46:13;8.80;;;6.70;;
13102;SDS011;52970;46.752;17.108;2024-02-26T09:48:40;9.98;;;5.63;;
13102;SDS011;52970;46.752;17.108;2024-02-26T09:51:07;6.55;;;5.68;;
13102;SDS011;52970;46.752;17.108;2024-02-26T09:53:33;7.60;;;4.97;;
13102;SDS011;52970;46.752;17.108;2024-02-26T09:56:04;7.95;;;5.32;;
13102;SDS011;52970;46.752;17.108;2024-02-26T09:58:29;5.43;;;3.90;;
13102;SDS011;52970;46.752;17.108;2024-02-26T10:00:58;3.03;;;2.78;;
13102;SDS011;52970;46.752;17.108;2024-02-26T10:03:25;2.78;;;2.30;;
13102;SDS011;52970;46.752;17.108;2024-02-26T10:05:53;2.60;;;2.40;;
13102;SDS011;52970;46.752;17.108;2024-02-26T10:08:20;2.13;;;1.80;;
13102;SDS011;52970;46.752;17.108;2024-02-26T10:10:47;2.40;;;2.20;;
13102;SDS011;52970;46.752;17.108;2024-02-26T10:13:12;3.15;;;1.80;;
13102;SDS011;52970;46.752;17.108;2024-02-26T10:15:38;3.15;;;2.60;;
13102;SDS011;52970;46.752;17.108;2024-02-26T10:18:03;5.00;;;2.03;;
13102;SDS011;52970;46.752;17.108;2024-02-26T10:20:29;1.88;;;1.77;;
13102;SDS011;52970;46.752;17.108;2024-02-26T10:22:56;2.80;;;1.73;;
13102;SDS011;52970;46.752;17.108;2024-02-26T10:25:21;3.63;;;2.22;;
13102;SDS011;52970;46.752;17.108;2024-02-26T10:27:47;3.88;;;2.20;;
13102;SDS011;52970;46.752;17.108;2024-02-26T10:32:41;2.03;;;1.80;;
13102;SDS011;52970;46.752;17.108;2024-02-26T10:35:09;2.05;;;1.70;;
13102;SDS011;52970;46.752;17.108;2024-02-26T10:37:35;1.70;;;1.60;;
13102;SDS011;52970;46.752;17.108;2024-02-26T10:40:00;5.03;;;1.73;;
13102;SDS011;52970;46.752;17.108;2024-02-26T10:42:26;1.90;;;1.80;;
13102;SDS011;52970;46.752;17.108;2024-02-26T10:44:51;1.70;;;1.60;;
13102;SDS011;52970;46.752;17.108;2024-02-26T10:47:16;2.83;;;1.80;;
13102;SDS011;52970;46.752;17.108;2024-02-26T10:49:45;2.30;;;2.10;;
13102;SDS011;52970;46.752;17.108;2024-02-26T10:52:10;2.10;;;1.90;;
13102;SDS011;52970;46.752;17.108;2024-02-26T10:54:36;2.38;;;2.15;;
13102;SDS011;52970;46.752;17.108;2024-02-26T10:57:03;3.38;;;2.00;;
13102;SDS011;52970;46.752;17.108;2024-02-26T10:59:30;2.22;;;1.80;;
13102;SDS011;52970;46.752;17.108;2024-02-26T11:01:57;1.70;;;1.60;;
13102;SDS011;52970;46.752;17.108;2024-02-26T11:04:23;1.83;;;1.67;;
13102;SDS011;52970;46.752;17.108;2024-02-26T11:06:52;1.65;;;1.55;;
13102;SDS011;52970;46.752;17.108;2024-02-26T11:09:20;1.80;;;1.70;;
13102;SDS011;52970;46.752;17.108;2024-02-26T11:11:47;2.47;;;1.67;;
13102;SDS011;52970;46.752;17.108;2024-02-26T11:14:12;3.83;;;1.60;;
13102;SDS011;52970;46.752;17.108;2024-02-26T11:16:39;1.95;;;1.77;;
13102;SDS011;52970;46.752;17.108;2024-02-26T11:19:06;4.55;;;1.70;;
13102;SDS011;52970;46.752;17.108;2024-02-26T11:21:33;3.65;;;1.90;;
13102;SDS011;52970;46.752;17.108;2024-02-26T11:24:14;3.30;;;1.83;;
13102;SDS011;52970;46.752;17.108;2024-02-26T11:26:47;2.17;;;1.77;;
13102;SDS011;52970;46.752;17.108;2024-02-26T11:29:16;2.33;;;2.00;;
13102;SDS011;52970;46.752;17.108;2024-02-26T11:31:42;1.52;;;1.42;;
13102;SDS011;52970;46.752;17.108;2024-02-26T11:34:08;3.10;;;2.10;;
13102;SDS011;52970;46.752;17.108;2024-02-26T11:36:34;3.03;;;1.85;;
13102;SDS011;52970;46.752;17.108;2024-02-26T11:38:59;3.47;;;1.70;;
13102;SDS011;52970;46.752;17.108;2024-02-26T11:41:24;1.90;;;1.80;;
13102;SDS011;52970;46.752;17.108;2024-02-26T11:46:29;1.85;;;1.70;;
13102;SDS011;52970;46.752;17.108;2024-02-26T11:48:56;2.38;;;1.90;;
13102;SDS011;52970;46.752;17.108;2024-02-26T11:51:25;2.97;;;1.80;;
13102;SDS011;52970;46.752;17.108;2024-02-26T11:53:51;2.58;;;2.38;;
13102;SDS011;52970;46.752;17.108;2024-02-26T11:58:42;4.55;;;4.05;;
13102;SDS011;52970;46.752;17.108;2024-02-26T12:03:53;3.28;;;2.95;;
13102;SDS011;52970;46.752;17.108;2024-02-26T12:06:19;4.00;;;3.60;;
13102;SDS011;52970;46.752;17.108;2024-02-26T12:08:44;2.65;;;2.45;;
13102;SDS011;52970;46.752;17.108;2024-02-26T12:11:15;2.25;;;2.10;;
13102;SDS011;52970;46.752;17.108;2024-02-26T12:13:41;2.15;;;1.90;;
13102;SDS011;52970;46.752;17.108;2024-02-26T12:16:06;1.90;;;1.77;;
13102;SDS011;52970;46.752;17.108;2024-02-26T12:18:32;4.05;;;2.20;;
13102;SDS011;52970;46.752;17.108;2024-02-26T12:21:00;1.90;;;1.80;;
13102;SDS011;52970;46.752;17.108;2024-02-26T12:23:26;1.77;;;1.67;;
13102;SDS011;52970;46.752;17.108;2024-02-26T12:25:52;1.83;;;1.70;;
13102;SDS011;52970;46.752;17.108;2024-02-26T12:28:17;1.75;;;1.65;;
13102;SDS011;52970;46.752;17.108;2024-02-26T12:30:42;2.13;;;1.90;;
13102;SDS011;52970;46.752;17.108;2024-02-26T12:33:08;1.50;;;1.40;;
13102;SDS011;52970;46.752;17.108;2024-02-26T12:35:33;3.03;;;1.55;;
13102;SDS011;52970;46.752;17.108;2024-02-26T12:37:59;1.95;;;1.80;;
13102;SDS011;52970;46.752;17.108;2024-02-26T12:40:25;1.70;;;1.60;;
13102;SDS011;52970;46.752;17.108;2024-02-26T12:42:51;2.08;;;1.52;;
13102;SDS011;52970;46.752;17.108;2024-02-26T12:45:18;2.88;;;1.90;;
13102;SDS011;52970;46.752;17.108;2024-02-26T12:47:45;2.20;;;1.20;;
13102;SDS011;52970;46.752;17.108;2024-02-26T12:50:16;2.03;;;1.83;;
13102;SDS011;52970;46.752;17.108;2024-02-26T12:52:46;1.63;;;1.52;;
13102;SDS011;52970;46.752;17.108;2024-02-26T12:55:15;2.90;;;1.65;;
13102;SDS011;52970;46.752;17.108;2024-02-26T12:57:41;1.40;;;1.38;;
13102;SDS011;52970;46.752;17.108;2024-02-26T13:00:11;1.25;;;1.15;;
13102;SDS011;52970;46.752;17.108;2024-02-26T13:02:37;1.50;;;1.45;;
13102;SDS011;52970;46.752;17.108;2024-02-26T13:05:04;3.25;;;1.45;;
13102;SDS011;52970;46.752;17.108;2024-02-26T13:07:30;1.83;;;1.58;;
13102;SDS011;52970;46.752;17.108;2024-02-26T13:09:55;1.92;;;1.83;;
13102;SDS011;52970;46.752;17.108;2024-02-26T13:12:20;4.43;;;2.33;;
13102;SDS011;52970;46.752;17.108;2024-02-26T13:14:46;2.60;;;2.00;;
13102;SDS011;52970;46.752;17.108;2024-02-26T13:17:11;2.20;;;1.90;;
13102;SDS011;52970;46.752;17.108;2024-02-26T13:19:37;2.83;;;1.67;;
13102;SDS011;52970;46.752;17.108;2024-02-26T13:22:05;1.73;;;1.60;;
13102;SDS011;52970;46.752;17.108;2024-02-26T13:24:31;2.00;;;1.88;;
13102;SDS011;52970;46.752;17.108;2024-02-26T13:26:56;2.78;;;1.90;;
13102;SDS011;52970;46.752;17.108;2024-02-26T13:29:22;2.25;;;1.70;;
13102;SDS011;52970;46.752;17.108;2024-02-26T13:31:47;2.28;;;1.70;;
13102;SDS011;52970;46.752;17.108;2024-02-26T13:34:25;1.80;;;1.70;;
13102;SDS011;52970;46.752;17.108;2024-02-26T13:36:52;2.28;;;1.75;;
13102;SDS011;52970;46.752;17.108;2024-02-26T13:39:23;2.15;;;1.95;;
13102;SDS011;52970;46.752;17.108;2024-02-26T13:41:49;3.70;;;1.85;;
13102;SDS011;52970;46.752;17.108;2024-02-26T13:44:14;1.83;;;1.70;;
13102;SDS011;52970;46.752;17.108;2024-02-26T13:46:39;2.97;;;1.70;;
13102;SDS011;52970;46.752;17.108;2024-02-26T13:49:05;2.53;;;2.33;;
13102;SDS011;52970;46.752;17.108;2024-02-26T13:51:33;1.90;;;1.80;;
13102;SDS011;52970;46.752;17.108;2024-02-26T13:54:00;2.90;;;2.00;;
13102;SDS011;52970;46.752;17.108;2024-02-26T13:56:25;3.22;;;1.80;;
13102;SDS011;52970;46.752;17.108;2024-02-26T13:58:51;2.13;;;2.00;;
13102;SDS011;52970;46.752;17.108;2024-02-26T14:01:16;10.20;;;2.47;;
13102;SDS011;52970;46.752;17.108;2024-02-26T14:03:41;3.80;;;2.60;;
13102;SDS011;52970;46.752;17.108;2024-02-26T14:06:07;6.50;;;3.92;;
13102;SDS011;52970;46.752;17.108;2024-02-26T14:08:32;10.43;;;8.00;;
13102;SDS011;52970;46.752;17.108;2024-02-26T14:10:57;7.38;;;5.97;;
13102;SDS011;52970;46.752;17.108;2024-02-26T14:13:24;5.10;;;4.53;;
13102;SDS011;52970;46.752;17.108;2024-02-26T14:15:50;6.13;;;3.85;;
13102;SDS011;52970;46.752;17.108;2024-02-26T14:18:15;4.03;;;3.20;;
13102;SDS011;52970;46.752;17.108;2024-02-26T14:20:40;3.22;;;2.88;;